Time;durP1;ratioP1;P1;durP2;ratioP2;P2;SDS_P1;SDS_P2;PMS_P1;PMS_P2;Temp;Humidity;BMP_temperature;BMP_pressure;BME280_temperature;BME280_humidity;BME280_pressure;Samples;Min_cycle;Max_cycle;Signal;HPM_P1;HPM_P2
2024/01/23 00:01:59;;;;;;;27.70;3.67;;;7.90;99.90;;;;;;5016255;28;20033;-77
2024/01/23 00:04:25;;;;;;;21.13;3.10;;;7.90;99.90;;;;;;5016178;28;20180;-79
2024/01/23 00:06:51;;;;;;;24.30;2.80;;;7.90;99.90;;;;;;5016442;28;20069;-77
2024/01/23 00:09:16;;;;;;;24.43;3.43;;;7.90;99.90;;;;;;5015977;28;20030;-77
2024/01/23 00:11:42;;;;;;;20.83;4.97;;;8.00;99.90;;;;;;5016406;28;20028;-77
2024/01/23 00:14:08;;;;;;;21.67;3.17;;;7.90;99.90;;;;;;5031109;28;20028;-78
2024/01/23 00:16:34;;;;;;;22.53;3.30;;;7.90;99.90;;;;;;5016095;28;20030;-78
2024/01/23 00:18:59;;;;;;;19.80;3.47;;;7.90;99.90;;;;;;5015907;28;20048;-77
2024/01/23 00:21:25;;;;;;;23.40;4.10;;;7.90;99.90;;;;;;5015955;28;20032;-77
2024/01/23 00:23:51;;;;;;;25.27;3.87;;;7.90;99.90;;;;;;5014338;28;20117;-77
2024/01/23 00:26:17;;;;;;;27.00;4.60;;;7.90;99.90;;;;;;5015815;28;20037;-78
2024/01/23 00:28:42;;;;;;;24.10;3.03;;;7.80;99.90;;;;;;5014206;28;20049;-77
2024/01/23 00:31:08;;;;;;;31.67;3.53;;;7.80;99.90;;;;;;5015721;28;20513;-80
2024/01/23 00:33:34;;;;;;;33.03;4.60;;;7.80;99.90;;;;;;5015445;28;20505;-78
2024/01/23 00:35:59;;;;;;;22.97;3.53;;;7.70;99.90;;;;;;5014350;28;20084;-78
2024/01/23 00:38:25;;;;;;;27.97;4.23;;;7.70;99.90;;;;;;5015287;28;20061;-80
2024/01/23 00:40:51;;;;;;;23.10;3.17;;;7.70;99.90;;;;;;5015803;28;20037;-77
2024/01/23 00:43:17;;;;;;;23.67;2.87;;;7.70;99.90;;;;;;5014970;28;20022;-79
2024/01/23 00:45:42;;;;;;;17.27;3.73;;;7.70;99.90;;;;;;5015414;28;20034;-77
2024/01/23 00:48:08;;;;;;;27.47;4.10;;;7.70;99.90;;;;;;5015546;28;20113;-76
2024/01/23 00:50:34;;;;;;;27.77;5.37;;;7.70;99.90;;;;;;5030620;28;20018;-76
2024/01/23 00:53:00;;;;;;;18.37;3.37;;;7.60;99.90;;;;;;5030458;28;20029;-77
2024/01/23 00:55:25;;;;;;;28.67;4.17;;;7.60;99.90;;;;;;5015297;28;20037;-78
2024/01/23 00:57:51;;;;;;;28.23;4.57;;;7.70;99.90;;;;;;5030547;28;20425;-77
2024/01/23 01:00:17;;;;;;;25.90;3.63;;;7.70;99.90;;;;;;5014149;28;20397;-78
2024/01/23 01:02:42;;;;;;;23.67;3.03;;;7.70;99.90;;;;;;5030156;28;20026;-77
2024/01/23 01:05:08;;;;;;;20.83;3.40;;;7.70;99.90;;;;;;5014012;28;20034;-77
2024/01/23 01:07:34;;;;;;;19.40;3.03;;;7.70;99.90;;;;;;5013722;28;20113;-77
2024/01/23 01:09:59;;;;;;;22.03;3.93;;;7.70;99.90;;;;;;5015089;28;20029;-77
2024/01/23 01:12:25;;;;;;;30.03;3.73;;;7.70;99.90;;;;;;5030068;28;20132;-77
2024/01/23 01:14:51;;;;;;;27.67;3.63;;;7.70;99.90;;;;;;5033535;28;20037;-77
2024/01/23 01:17:16;;;;;;;22.03;3.23;;;7.70;99.90;;;;;;5034769;28;20508;-77
2024/01/23 01:19:42;;;;;;;21.47;2.97;;;7.70;99.90;;;;;;5034650;28;20021;-77
2024/01/23 01:22:07;;;;;;;29.57;3.77;;;7.70;99.90;;;;;;5034104;28;20272;-77
2024/01/23 01:24:33;;;;;;;21.23;3.17;;;7.70;99.90;;;;;;5034550;28;20503;-77
2024/01/23 01:26:59;;;;;;;17.77;3.67;;;7.70;99.90;;;;;;5034454;28;20092;-77
2024/01/23 01:29:24;;;;;;;22.40;3.70;;;7.70;99.90;;;;;;5034174;28;20079;-77
2024/01/23 01:31:51;;;;;;;27.27;4.23;;;7.60;99.90;;;;;;5034194;28;20032;-77
2024/01/23 01:34:17;;;;;;;28.93;4.43;;;7.60;99.90;;;;;;5034304;28;20036;-77
2024/01/23 01:36:42;;;;;;;25.83;4.40;;;7.50;99.90;;;;;;5033924;28;20025;-79
2024/01/23 01:39:11;;;;;;;20.30;4.33;;;7.60;99.90;;;;;;5034151;28;20524;-78
2024/01/23 01:41:37;;;;;;;27.50;3.77;;;7.50;99.90;;;;;;5034172;28;20112;-78
2024/01/23 01:44:03;;;;;;;32.27;4.73;;;7.50;99.90;;;;;;5033939;28;20108;-78
2024/01/23 01:46:28;;;;;;;18.20;3.17;;;7.40;99.90;;;;;;5034281;28;20481;-79
2024/01/23 01:48:55;;;;;;;18.63;3.00;;;7.40;99.90;;;;;;5033972;28;20474;-77
2024/01/23 01:51:24;;;;;;;28.23;3.50;;;7.40;99.90;;;;;;5033738;28;20085;-77
2024/01/23 01:53:50;;;;;;;22.93;3.53;;;7.30;99.90;;;;;;5033925;28;20033;-78
2024/01/23 01:56:18;;;;;;;20.57;3.20;;;7.30;99.90;;;;;;5033466;28;20108;-78
2024/01/23 01:58:45;;;;;;;19.43;3.13;;;7.20;99.90;;;;;;5032595;28;20024;-78
2024/01/23 02:01:11;;;;;;;23.80;2.70;;;7.20;99.90;;;;;;5033841;28;20064;-78
2024/01/23 02:03:37;;;;;;;19.47;3.17;;;7.10;99.90;;;;;;5033816;28;20017;-78
2024/01/23 02:06:03;;;;;;;20.57;3.27;;;7.10;99.90;;;;;;5033384;28;20029;-78
2024/01/23 02:08:30;;;;;;;21.40;2.83;;;7.10;99.90;;;;;;5033494;28;20056;-78
2024/01/23 02:10:56;;;;;;;14.70;2.20;;;7.10;99.90;;;;;;5033816;28;20083;-78
2024/01/23 02:13:22;;;;;;;20.53;3.30;;;7.00;99.90;;;;;;5032273;28;20112;-78
2024/01/23 02:15:48;;;;;;;19.47;2.90;;;7.00;99.90;;;;;;5033607;28;20030;-78
2024/01/23 02:18:14;;;;;;;23.03;4.20;;;6.90;99.90;;;;;;5033308;28;20021;-78
2024/01/23 02:20:40;;;;;;;21.10;3.00;;;6.90;99.90;;;;;;5033177;28;20032;-78
2024/01/23 02:23:11;;;;;;;24.70;3.13;;;6.90;99.90;;;;;;5032224;28;20026;-78
2024/01/23 02:25:37;;;;;;;25.70;3.63;;;6.80;99.90;;;;;;5032418;28;20392;-78
2024/01/23 02:28:03;;;;;;;27.33;3.67;;;6.80;99.90;;;;;;5033735;28;20128;-77
2024/01/23 02:30:28;;;;;;;31.50;5.20;;;6.70;99.90;;;;;;5032013;28;20030;-78
2024/01/23 02:32:54;;;;;;;26.90;4.20;;;6.70;99.90;;;;;;5033148;28;20453;-78
2024/01/23 02:35:20;;;;;;;23.10;3.40;;;6.70;99.90;;;;;;5033233;28;20485;-77
2024/01/23 02:37:45;;;;;;;24.53;3.23;;;6.70;99.90;;;;;;5033291;28;20034;-77
2024/01/23 02:40:11;;;;;;;25.70;4.03;;;6.70;99.90;;;;;;5033044;28;20489;-78
2024/01/23 02:42:37;;;;;;;27.43;3.53;;;6.60;99.90;;;;;;5033029;28;20025;-78
2024/01/23 02:45:03;;;;;;;26.30;3.73;;;6.60;99.90;;;;;;5031869;28;20021;-78
2024/01/23 02:47:28;;;;;;;25.20;3.40;;;6.70;99.90;;;;;;5032975;28;20033;-78
2024/01/23 02:49:54;;;;;;;22.07;3.60;;;6.70;99.90;;;;;;5033057;28;20474;-78
2024/01/23 02:52:20;;;;;;;23.20;3.13;;;6.80;99.90;;;;;;5032931;28;20025;-78
2024/01/23 02:54:45;;;;;;;22.00;4.40;;;6.80;99.90;;;;;;5032865;28;20389;-78
2024/01/23 02:57:12;;;;;;;22.73;4.43;;;6.80;99.90;;;;;;5033103;28;20032;-78
2024/01/23 02:59:38;;;;;;;25.73;3.43;;;6.90;99.90;;;;;;5032952;28;20108;-78
2024/01/23 03:02:03;;;;;;;24.00;4.50;;;6.80;99.90;;;;;;5032754;28;20102;-78
2024/01/23 03:04:29;;;;;;;24.20;3.90;;;6.90;99.90;;;;;;5032896;28;20497;-78
2024/01/23 03:06:55;;;;;;;19.13;3.23;;;6.90;99.90;;;;;;5034468;28;20037;-78
2024/01/23 03:09:20;;;;;;;25.00;4.17;;;6.90;99.90;;;;;;5037276;28;20036;-78
2024/01/23 03:11:46;;;;;;;23.37;3.60;;;6.90;99.90;;;;;;5036954;28;20108;-78
2024/01/23 03:14:12;;;;;;;29.33;4.80;;;6.90;99.90;;;;;;5036989;28;20109;-77
2024/01/23 03:16:37;;;;;;;31.90;5.67;;;6.90;99.90;;;;;;5036554;28;20438;-78
2024/01/23 03:19:03;;;;;;;32.93;4.03;;;6.90;99.90;;;;;;5036846;28;20033;-78
2024/01/23 03:21:28;;;;;;;28.07;4.60;;;7.00;99.90;;;;;;5036867;28;20079;-78
2024/01/23 03:23:54;;;;;;;26.20;3.93;;;7.00;99.90;;;;;;5036574;28;20030;-78
2024/01/23 03:26:20;;;;;;;24.20;3.57;;;7.00;99.90;;;;;;5036500;28;20049;-78
2024/01/23 03:28:45;;;;;;;20.47;3.83;;;7.10;99.90;;;;;;5036560;28;20049;-78
2024/01/23 03:31:11;;;;;;;22.17;3.60;;;7.00;99.90;;;;;;5036494;28;20385;-78
2024/01/23 03:33:37;;;;;;;29.30;4.53;;;7.20;99.90;;;;;;5036312;28;20315;-79
2024/01/23 03:36:02;;;;;;;22.57;4.10;;;7.00;99.90;;;;;;5036381;28;20029;-78
2024/01/23 03:38:28;;;;;;;28.40;4.03;;;7.00;99.90;;;;;;5036485;28;20098;-82
2024/01/23 03:40:54;;;;;;;25.67;3.53;;;7.00;99.90;;;;;;5036718;28;20025;-78
2024/01/23 03:43:19;;;;;;;22.43;3.83;;;6.90;99.90;;;;;;5036454;28;20026;-78
2024/01/23 03:45:45;;;;;;;23.50;3.53;;;6.90;99.90;;;;;;5036138;28;20095;-79
2024/01/23 03:48:11;;;;;;;19.73;3.33;;;6.90;99.90;;;;;;5036270;28;20505;-78
2024/01/23 03:50:36;;;;;;;29.13;3.93;;;6.90;99.90;;;;;;5036165;28;20022;-78
2024/01/23 03:53:02;;;;;;;22.93;3.60;;;6.90;99.90;;;;;;5034906;28;20044;-78
2024/01/23 03:55:28;;;;;;;22.60;3.43;;;6.90;99.90;;;;;;5036241;28;20022;-78
2024/01/23 03:57:53;;;;;;;19.63;3.23;;;6.90;99.90;;;;;;5036258;28;20528;-78
2024/01/23 04:00:19;;;;;;;22.00;3.27;;;6.90;99.90;;;;;;5035958;28;20026;-77
2024/01/23 04:02:45;;;;;;;26.47;4.30;;;6.90;99.90;;;;;;5035015;28;20023;-77
2024/01/23 04:05:11;;;;;;;22.77;3.87;;;6.90;99.90;;;;;;5034529;28;20381;-77
2024/01/23 04:07:36;;;;;;;21.03;3.37;;;6.90;99.90;;;;;;5036458;28;20029;-77
2024/01/23 04:10:04;;;;;;;19.77;2.47;;;6.80;99.90;;;;;;5034734;28;20424;-77
2024/01/23 04:12:29;;;;;;;22.27;3.13;;;6.80;99.90;;;;;;5036141;28;20017;-77
2024/01/23 04:14:55;;;;;;;27.00;3.30;;;6.70;99.90;;;;;;5035447;28;20060;-77
2024/01/23 04:17:21;;;;;;;21.57;2.63;;;6.70;99.90;;;;;;5035616;28;20389;-78
2024/01/23 04:19:46;;;;;;;24.90;3.30;;;6.70;99.90;;;;;;5035845;28;20225;-77
2024/01/23 04:22:12;;;;;;;19.87;3.20;;;6.70;99.90;;;;;;5035588;28;20447;-77
2024/01/23 04:24:38;;;;;;;27.20;2.77;;;6.70;99.90;;;;;;5035477;28;20025;-77
2024/01/23 04:27:04;;;;;;;27.30;2.93;;;6.60;99.90;;;;;;5035496;28;20029;-76
2024/01/23 04:29:30;;;;;;;18.33;2.67;;;6.60;99.90;;;;;;5035498;28;20033;-77
2024/01/23 04:31:55;;;;;;;28.40;2.87;;;6.60;99.90;;;;;;5035310;28;20029;-77
2024/01/23 04:34:21;;;;;;;18.53;2.80;;;6.50;99.90;;;;;;5035468;28;20501;-78
2024/01/23 04:36:48;;;;;;;24.73;2.87;;;6.50;99.90;;;;;;5035325;28;20104;-78
2024/01/23 04:39:14;;;;;;;23.07;3.53;;;6.50;99.90;;;;;;5035396;28;20071;-77
2024/01/23 04:41:40;;;;;;;23.33;3.03;;;6.50;99.90;;;;;;5035402;28;20025;-77
2024/01/23 04:44:05;;;;;;;22.13;2.77;;;6.40;99.90;;;;;;5035233;28;20029;-78
2024/01/23 04:46:31;;;;;;;19.23;4.23;;;6.50;99.90;;;;;;5034212;28;20428;-77
2024/01/23 04:48:57;;;;;;;23.67;3.00;;;6.50;99.90;;;;;;5035240;28;20025;-77
2024/01/23 04:51:22;;;;;;;25.83;4.17;;;6.50;99.90;;;;;;5035075;28;20022;-78
2024/01/23 04:53:51;;;;;;;22.20;2.60;;;6.50;99.90;;;;;;5035069;28;20478;-77
2024/01/23 04:56:17;;;;;;;19.50;3.53;;;6.40;99.90;;;;;;5034956;28;20056;-77
2024/01/23 04:58:43;;;;;;;22.80;3.83;;;6.50;99.90;;;;;;5034895;28;20045;-78
2024/01/23 05:01:08;;;;;;;22.60;3.43;;;6.40;99.90;;;;;;5034930;28;20463;-77
2024/01/23 05:03:34;;;;;;;19.07;4.20;;;6.50;99.90;;;;;;5033679;28;20116;-78
2024/01/23 05:05:59;;;;;;;25.37;3.50;;;6.50;99.90;;;;;;5035067;28;20069;-77
2024/01/23 05:08:25;;;;;;;20.57;2.97;;;6.50;99.90;;;;;;5028219;28;20053;-77
2024/01/23 05:10:51;;;;;;;18.97;2.97;;;6.50;99.90;;;;;;5014065;28;20105;-77
2024/01/23 05:13:16;;;;;;;25.87;3.73;;;6.60;99.90;;;;;;5029667;28;20492;-78
2024/01/23 05:15:42;;;;;;;25.83;3.50;;;6.50;99.90;;;;;;5013977;28;20021;-78
2024/01/23 05:18:08;;;;;;;26.90;3.33;;;6.60;99.90;;;;;;5015218;28;20029;-76
2024/01/23 05:20:34;;;;;;;21.30;3.80;;;6.60;99.90;;;;;;5014987;28;20561;-77
2024/01/23 05:23:01;;;;;;;16.67;3.37;;;6.60;99.90;;;;;;5014856;28;20018;-77
2024/01/23 05:25:27;;;;;;;20.93;3.57;;;6.60;99.90;;;;;;5014640;28;20038;-78
2024/01/23 05:27:53;;;;;;;19.80;3.20;;;6.60;99.90;;;;;;5013048;28;20044;-77
2024/01/23 05:30:19;;;;;;;25.73;3.70;;;6.70;99.90;;;;;;5013787;28;20476;-77
2024/01/23 05:32:44;;;;;;;23.47;3.63;;;6.70;99.90;;;;;;5014161;28;20040;-77
2024/01/23 05:35:10;;;;;;;25.40;4.53;;;6.70;99.90;;;;;;5014605;28;20030;-77
2024/01/23 05:37:36;;;;;;;16.97;2.40;;;6.70;99.90;;;;;;5014526;28;20030;-78
2024/01/23 05:40:03;;;;;;;18.60;3.27;;;6.70;99.90;;;;;;5014572;28;20104;-77
2024/01/23 05:42:29;;;;;;;20.13;2.40;;;6.70;99.90;;;;;;5014305;28;20483;-78
2024/01/23 05:44:56;;;;;;;15.60;2.27;;;6.70;99.90;;;;;;5014024;28;20068;-77
2024/01/23 05:47:21;;;;;;;18.27;3.33;;;6.70;99.90;;;;;;5014613;28;20467;-77
2024/01/23 05:49:47;;;;;;;24.10;2.90;;;6.70;99.90;;;;;;5016192;28;20049;-77
2024/01/23 05:52:14;;;;;;;16.67;2.67;;;6.60;99.90;;;;;;5014119;28;20050;-77
2024/01/23 05:54:41;;;;;;;20.70;3.80;;;6.60;99.90;;;;;;5014023;28;20106;-78
2024/01/23 05:57:08;;;;;;;14.93;2.57;;;6.60;99.90;;;;;;5013855;28;20087;-78
2024/01/23 05:59:35;;;;;;;24.20;3.27;;;6.60;99.90;;;;;;5013938;28;20493;-78
2024/01/23 06:02:02;;;;;;;23.73;3.03;;;6.60;99.90;;;;;;5030955;28;20026;-78
2024/01/23 06:04:28;;;;;;;25.27;2.90;;;6.50;99.90;;;;;;5021220;28;20499;-78
2024/01/23 06:06:55;;;;;;;19.33;3.03;;;6.60;99.90;;;;;;5022805;28;20034;-79
2024/01/23 06:09:21;;;;;;;20.37;3.37;;;6.50;99.90;;;;;;5021665;28;20025;-77
2024/01/23 06:11:47;;;;;;;21.83;3.40;;;6.50;99.90;;;;;;5033098;28;20088;-77
2024/01/23 06:14:12;;;;;;;22.77;3.10;;;6.50;99.90;;;;;;5033287;28;20022;-77
2024/01/23 06:16:38;;;;;;;25.03;3.10;;;6.30;99.90;;;;;;5033447;28;20064;-77
2024/01/23 06:19:07;;;;;;;19.43;3.03;;;6.40;99.90;;;;;;5032304;28;20030;-78
2024/01/23 06:21:32;;;;;;;22.53;3.80;;;6.40;99.90;;;;;;5025899;28;20029;-76
2024/01/23 06:23:58;;;;;;;19.57;2.80;;;6.20;99.90;;;;;;5029286;28;20477;-77
2024/01/23 06:26:24;;;;;;;16.07;2.30;;;6.20;99.90;;;;;;5015104;28;20386;-78
2024/01/23 06:28:49;;;;;;;22.40;2.83;;;6.20;99.90;;;;;;5012084;28;20498;-79
2024/01/23 06:31:15;;;;;;;18.30;3.00;;;6.20;99.90;;;;;;5016552;28;20034;-78
2024/01/23 06:33:41;;;;;;;18.30;2.87;;;6.20;99.90;;;;;;5013187;28;20029;-78
2024/01/23 06:36:07;;;;;;;14.37;1.97;;;6.00;99.90;;;;;;5013276;28;20025;-83
2024/01/23 06:38:34;;;;;;;26.33;3.13;;;6.00;99.90;;;;;;5012853;28;20485;-83
2024/01/23 06:41:00;;;;;;;24.97;3.70;;;6.00;99.90;;;;;;5012210;28;20378;-83
2024/01/23 06:43:25;;;;;;;18.57;2.60;;;6.00;99.90;;;;;;5028874;28;20025;-83
2024/01/23 06:45:51;;;;;;;18.97;3.13;;;5.90;99.90;;;;;;5013438;28;20033;-83
2024/01/23 06:48:16;;;;;;;15.40;2.67;;;6.00;99.90;;;;;;5012137;28;20230;-83
2024/01/23 06:50:44;;;;;;;16.13;2.27;;;5.90;99.90;;;;;;5012027;28;20036;-83
2024/01/23 06:53:10;;;;;;;18.03;2.43;;;5.90;99.90;;;;;;5012330;28;20018;-83
2024/01/23 06:55:35;;;;;;;19.83;3.10;;;5.90;99.90;;;;;;5011893;28;20512;-83
2024/01/23 06:58:01;;;;;;;17.30;3.10;;;5.80;99.90;;;;;;5013385;28;20114;-83
2024/01/23 07:00:27;;;;;;;14.00;2.13;;;5.80;99.90;;;;;;5013200;28;20436;-83
2024/01/23 07:02:53;;;;;;;16.97;2.73;;;5.90;99.90;;;;;;5028651;28;20557;-84
2024/01/23 07:05:18;;;;;;;22.87;3.50;;;5.80;99.90;;;;;;5013705;28;20030;-84
2024/01/23 07:07:44;;;;;;;16.27;2.57;;;5.70;99.90;;;;;;5014340;28;20093;-84
2024/01/23 07:10:10;;;;;;;24.67;3.20;;;5.70;99.90;;;;;;5012094;28;20022;-84
2024/01/23 07:12:36;;;;;;;21.00;4.10;;;5.60;99.90;;;;;;5014580;28;20029;-84
2024/01/23 07:15:02;;;;;;;22.53;4.37;;;5.60;99.90;;;;;;5013633;28;20022;-87
2024/01/23 07:17:27;;;;;;;19.33;2.73;;;5.60;99.90;;;;;;5012824;28;20026;-86
2024/01/23 07:19:54;;;;;;;14.67;2.60;;;5.50;99.90;;;;;;5013031;28;20053;-85
2024/01/23 07:22:20;;;;;;;19.97;2.53;;;5.50;99.90;;;;;;5013601;28;20460;-84
2024/01/23 07:24:45;;;;;;;18.03;2.93;;;5.40;99.90;;;;;;5013156;28;20034;-83
2024/01/23 07:27:11;;;;;;;19.70;2.53;;;5.40;99.90;;;;;;5013353;28;20109;-84
2024/01/23 07:29:38;;;;;;;17.63;3.20;;;5.50;99.90;;;;;;5013385;28;20413;-83
2024/01/23 07:32:05;;;;;;;14.50;2.57;;;5.40;99.90;;;;;;5013225;28;20025;-84
2024/01/23 07:34:30;;;;;;;25.53;2.67;;;5.40;99.90;;;;;;5011633;28;20032;-83
2024/01/23 07:36:56;;;;;;;14.80;2.50;;;5.40;99.90;;;;;;5013262;28;20029;-84
2024/01/23 07:39:23;;;;;;;17.37;2.70;;;5.40;99.90;;;;;;5028127;28;20401;-84
2024/01/23 07:41:48;;;;;;;23.77;2.87;;;5.40;99.90;;;;;;5013463;28;20046;-85
2024/01/23 07:44:14;;;;;;;21.07;3.27;;;5.30;99.90;;;;;;5012952;28;20077;-85
2024/01/23 07:46:40;;;;;;;24.53;3.47;;;5.30;99.90;;;;;;5012803;28;20033;-85
2024/01/23 07:49:05;;;;;;;22.70;3.20;;;5.30;99.90;;;;;;5012126;28;20113;-85
2024/01/23 07:51:51;;;;;;;19.50;3.70;;;5.30;99.90;;;;;;5011619;28;20022;-85
2024/01/23 07:54:17;;;;;;;25.57;4.63;;;5.30;99.90;;;;;;5016282;28;20041;-85
2024/01/23 07:56:43;;;;;;;18.80;3.37;;;5.40;99.90;;;;;;5016592;28;20037;-85
2024/01/23 07:59:09;;;;;;;18.03;2.90;;;5.30;99.90;;;;;;5017160;28;20022;-85
2024/01/23 08:01:34;;;;;;;16.33;2.23;;;5.40;99.90;;;;;;5019491;28;20405;-84
2024/01/23 08:04:00;;;;;;;17.30;3.27;;;5.40;99.90;;;;;;5017570;28;20161;-86
2024/01/23 08:06:26;;;;;;;14.10;3.47;;;5.40;99.90;;;;;;5016769;28;20499;-85
2024/01/23 08:08:51;;;;;;;20.03;3.07;;;5.40;99.90;;;;;;5016500;28;20395;-85
2024/01/23 08:11:20;;;;;;;26.07;3.97;;;5.40;99.90;;;;;;5015486;28;20106;-85
2024/01/23 08:13:45;;;;;;;23.83;2.73;;;5.30;99.90;;;;;;5016536;28;20014;-84
2024/01/23 08:16:11;;;;;;;22.80;3.23;;;5.40;99.90;;;;;;5031535;28;20018;-85
2024/01/23 08:18:38;;;;;;;23.17;3.03;;;5.40;99.90;;;;;;5016371;28;20091;-84
2024/01/23 08:21:05;;;;;;;22.13;2.50;;;5.40;99.90;;;;;;5015877;28;20389;-84
2024/01/23 08:23:30;;;;;;;20.57;3.13;;;5.50;99.90;;;;;;5031469;28;20025;-85
2024/01/23 08:25:56;;;;;;;19.07;4.20;;;5.50;99.90;;;;;;5016246;28;20042;-85
2024/01/23 08:28:23;;;;;;;21.07;2.77;;;5.50;99.90;;;;;;5014684;28;20037;-83
2024/01/23 08:30:49;;;;;;;20.43;3.03;;;5.50;99.90;;;;;;5015892;28;20018;-85
2024/01/23 08:33:18;;;;;;;19.63;3.43;;;5.60;99.90;;;;;;5014704;28;20044;-85
2024/01/23 08:35:44;;;;;;;15.67;2.70;;;5.60;99.90;;;;;;5030984;28;20113;-85
2024/01/23 08:38:10;;;;;;;17.27;2.83;;;5.60;99.90;;;;;;5014707;28;20433;-85
2024/01/23 08:40:37;;;;;;;23.87;2.83;;;5.70;99.90;;;;;;5014593;28;20034;-85
2024/01/23 08:43:04;;;;;;;23.83;3.87;;;5.70;99.90;;;;;;5015642;28;20053;-85
2024/01/23 08:45:29;;;;;;;20.27;3.43;;;5.70;99.90;;;;;;5015993;28;20489;-84
2024/01/23 08:47:55;;;;;;;12.00;2.73;;;5.80;99.90;;;;;;5015199;28;20108;-85
2024/01/23 08:50:21;;;;;;;19.60;3.50;;;5.80;99.90;;;;;;5016491;28;20477;-84
2024/01/23 08:52:47;;;;;;;24.63;3.53;;;5.80;99.90;;;;;;5015546;28;20029;-85
2024/01/23 08:55:14;;;;;;;22.17;2.90;;;5.80;99.90;;;;;;5014641;28;20029;-84
2024/01/23 08:57:40;;;;;;;25.80;3.00;;;5.90;99.90;;;;;;5015306;28;20032;-84
2024/01/23 09:00:07;;;;;;;23.23;3.90;;;5.90;99.90;;;;;;5015828;28;20055;-85
2024/01/23 09:02:33;;;;;;;24.97;2.73;;;6.00;99.90;;;;;;5015238;28;20033;-84
2024/01/23 09:04:59;;;;;;;26.73;3.60;;;6.00;99.90;;;;;;5012926;28;21075;-84
2024/01/23 09:07:25;;;;;;;21.37;3.13;;;6.00;99.90;;;;;;5014437;28;20026;-84
2024/01/23 09:09:51;;;;;;;23.73;3.27;;;6.10;99.90;;;;;;5016194;28;20029;-84
2024/01/23 09:12:17;;;;;;;19.97;3.60;;;6.10;99.90;;;;;;5014175;28;20022;-85
2024/01/23 09:14:43;;;;;;;20.17;3.70;;;6.20;99.90;;;;;;5015194;28;20030;-84
2024/01/23 09:17:10;;;;;;;19.53;3.67;;;6.20;99.90;;;;;;5015077;28;20026;-84
2024/01/23 09:19:35;;;;;;;18.40;3.33;;;6.30;99.90;;;;;;5030307;28;20022;-84
2024/01/23 09:22:01;;;;;;;33.10;4.20;;;6.30;99.90;;;;;;5013939;28;20029;-84
2024/01/23 09:24:27;;;;;;;22.63;3.40;;;6.40;99.90;;;;;;5030031;28;20083;-84
2024/01/23 09:26:58;;;;;;;20.03;3.37;;;6.50;99.90;;;;;;5015198;28;20026;-85
2024/01/23 09:29:26;;;;;;;26.80;3.70;;;6.50;99.90;;;;;;5013534;28;20498;-85
2024/01/23 09:31:51;;;;;;;26.60;3.67;;;6.60;99.90;;;;;;5014405;28;20069;-85
2024/01/23 09:34:17;;;;;;;29.30;3.10;;;6.60;99.90;;;;;;5015218;28;20053;-84
2024/01/23 09:36:42;;;;;;;25.43;3.93;;;6.60;99.90;;;;;;5014885;28;20498;-84
2024/01/23 09:39:13;;;;;;;24.07;3.00;;;6.70;99.90;;;;;;5015155;28;20137;-84
2024/01/23 09:41:43;;;;;;;24.57;3.67;;;6.70;99.90;;;;;;5014787;28;20026;-84
2024/01/23 09:44:11;;;;;;;28.23;5.13;;;6.80;99.90;;;;;;5015333;28;20021;-84
2024/01/23 09:46:37;;;;;;;26.60;3.83;;;6.90;99.90;;;;;;5013360;28;20207;-85
2024/01/23 09:49:03;;;;;;;27.27;4.20;;;7.00;99.90;;;;;;5013060;28;20056;-85
2024/01/23 09:51:30;;;;;;;18.83;3.07;;;7.20;99.90;;;;;;5014776;28;20024;-84
2024/01/23 09:53:56;;;;;;;24.97;3.60;;;7.40;99.90;;;;;;5014148;28;20022;-85
2024/01/23 09:56:22;;;;;;;22.10;3.50;;;7.70;99.90;;;;;;5013521;28;20092;-82
2024/01/23 09:58:49;;;;;;;23.03;3.97;;;8.00;99.90;;;;;;5013356;28;20025;-81
2024/01/23 10:01:18;;;;;;;23.93;4.03;;;8.20;99.90;;;;;;5014415;28;20050;-82
2024/01/23 10:03:48;;;;;;;26.40;3.63;;;8.60;99.90;;;;;;5013974;28;20075;-82
2024/01/23 10:06:14;;;;;;;22.77;3.67;;;8.90;99.90;;;;;;5014519;28;20113;-82
2024/01/23 10:08:40;;;;;;;32.40;4.55;;;9.30;99.90;;;;;;5014168;28;20073;-83
2024/01/23 10:11:06;;;;;;;24.52;3.58;;;9.60;99.90;;;;;;5014164;28;20026;-83
2024/01/23 10:13:32;;;;;;;17.77;3.13;;;10.00;99.90;;;;;;5013918;28;20029;-83
2024/01/23 10:15:57;;;;;;;17.98;3.42;;;10.30;99.90;;;;;;5029196;28;20084;-84
2024/01/23 10:18:25;;;;;;;17.17;3.25;;;10.60;99.90;;;;;;5014091;28;20029;-83
2024/01/23 10:20:51;;;;;;;17.13;2.95;;;10.90;99.90;;;;;;5014041;28;20482;-83
2024/01/23 10:23:17;;;;;;;15.32;3.22;;;11.30;99.90;;;;;;5014057;28;20112;-82
2024/01/23 10:25:43;;;;;;;13.07;2.90;;;11.70;99.80;;;;;;5013613;28;20029;-83
2024/01/23 10:28:09;;;;;;;18.15;3.47;;;11.90;98.80;;;;;;5014096;28;20363;-83
2024/01/23 10:30:36;;;;;;;23.35;3.58;;;12.20;97.30;;;;;;5013402;28;20050;-83
2024/01/23 10:33:05;;;;;;;17.75;3.03;;;12.50;96.00;;;;;;5013215;28;20033;-83
2024/01/23 10:35:35;;;;;;;15.82;2.63;;;12.80;95.60;;;;;;5013711;28;20021;-83
2024/01/23 10:38:02;;;;;;;11.82;3.03;;;13.00;95.50;;;;;;5013605;28;20029;-83
2024/01/23 10:40:29;;;;;;;13.48;2.67;;;13.20;93.90;;;;;;5013484;28;20083;-82
2024/01/23 10:43:01;;;;;;;15.23;3.67;;;13.30;93.80;;;;;;5013744;28;20033;-84
2024/01/23 10:45:27;;;;;;;18.85;3.03;;;13.50;93.70;;;;;;5028661;28;20046;-83
2024/01/23 10:47:56;;;;;;;16.50;3.30;;;13.80;92.10;;;;;;5013369;28;20363;-83
2024/01/23 10:50:22;;;;;;;18.85;3.20;;;13.90;89.90;;;;;;5013708;28;20036;-83
2024/01/23 10:52:49;;;;;;;17.52;3.92;;;13.60;84.80;;;;;;5012771;28;20026;-83
2024/01/23 10:55:16;;;;;;;15.93;3.22;;;13.30;81.80;;;;;;5013574;28;20088;-83
2024/01/23 10:57:48;;;;;;;18.13;3.85;;;13.10;82.70;;;;;;5013654;28;20425;-84
2024/01/23 11:00:17;;;;;;;17.08;3.00;;;12.80;80.40;;;;;;5015619;28;20398;-84
2024/01/23 11:02:52;;;;;;;18.83;4.72;;;12.40;82.20;;;;;;5013614;28;20486;-82
2024/01/23 11:05:30;;;;;;;16.70;2.72;;;12.30;82.90;;;;;;5016476;28;20029;-82
2024/01/23 11:08:01;;;;;;;16.75;2.88;;;12.30;82.80;;;;;;5018618;28;20497;-82
2024/01/23 11:10:46;;;;;;;20.92;3.42;;;12.40;82.90;;;;;;5013290;28;20155;-83
2024/01/23 11:13:19;;;;;;;16.85;2.95;;;12.50;83.00;;;;;;5028638;28;20018;-83
2024/01/23 11:15:45;;;;;;;23.83;4.75;;;12.30;80.70;;;;;;5013212;28;20057;-83
2024/01/23 11:18:27;;;;;;;16.33;3.22;;;12.20;80.90;;;;;;5013169;28;20026;-83
2024/01/23 11:21:05;;;;;;;22.85;4.00;;;12.10;81.30;;;;;;5013099;28;20474;-83
2024/01/23 11:23:31;;;;;;;20.45;3.67;;;11.90;80.80;;;;;;5013283;28;20053;-83
2024/01/23 11:26:15;;;;;;;15.30;2.78;;;11.70;80.80;;;;;;5011720;28;20041;-83
2024/01/23 11:28:44;;;;;;;18.90;3.47;;;11.60;82.30;;;;;;5015684;28;20022;-82
2024/01/23 11:31:20;;;;;;;15.90;2.88;;;11.60;82.40;;;;;;5032144;28;20022;-83
2024/01/23 11:33:51;;;;;;;16.90;2.97;;;11.70;83.50;;;;;;5016474;28;20018;-83
2024/01/23 11:36:28;;;;;;;14.60;2.22;;;11.80;84.00;;;;;;5017104;28;20095;-83
2024/01/23 11:39:00;;;;;;;12.88;2.80;;;12.00;84.00;;;;;;5016810;28;20022;-83
2024/01/23 11:41:27;;;;;;;17.92;3.10;;;12.10;83.10;;;;;;5032150;28;20120;-84
2024/01/23 11:44:14;;;;;;;15.20;3.60;;;12.10;83.20;;;;;;5017044;28;20030;-83
2024/01/23 11:46:41;;;;;;;17.70;3.25;;;12.10;83.50;;;;;;5031924;28;20030;-83
2024/01/23 11:49:07;;;;;;;15.15;3.47;;;12.20;83.80;;;;;;5016336;28;20038;-84
2024/01/23 11:51:36;;;;;;;16.25;2.90;;;12.30;82.80;;;;;;5016746;28;20022;-83
2024/01/23 11:54:07;;;;;;;15.73;3.28;;;12.40;82.90;;;;;;5031830;28;20449;-83
2024/01/23 11:56:34;;;;;;;19.55;3.03;;;12.50;82.30;;;;;;5016532;28;20022;-82
2024/01/23 11:58:59;;;;;;;16.48;3.45;;;12.40;81.00;;;;;;5031531;28;20029;-82
2024/01/23 12:01:27;;;;;;;16.85;3.13;;;12.40;80.40;;;;;;5031339;28;20026;-83
2024/01/23 12:03:53;;;;;;;20.77;4.65;;;12.30;79.30;;;;;;5016602;28;20037;-81
2024/01/23 12:06:19;;;;;;;22.45;3.47;;;12.20;78.60;;;;;;5016261;28;20026;-83
2024/01/23 12:08:45;;;;;;;21.20;4.38;;;11.90;79.00;;;;;;5031564;28;20014;-83
2024/01/23 12:11:13;;;;;;;21.55;4.15;;;11.80;78.90;;;;;;5016152;28;20018;-83
2024/01/23 12:13:39;;;;;;;23.20;3.58;;;11.70;79.20;;;;;;5016644;28;20025;-83
2024/01/23 12:16:10;;;;;;;16.75;2.50;;;11.60;79.80;;;;;;5016263;28;20026;-82
2024/01/23 12:18:36;;;;;;;14.07;2.05;;;11.50;80.50;;;;;;5015792;28;20083;-82
2024/01/23 12:21:04;;;;;;;15.13;2.63;;;11.60;80.90;;;;;;5031725;28;20022;-82
2024/01/23 12:23:30;;;;;;;19.00;3.90;;;11.70;80.70;;;;;;5031411;28;20018;-84
2024/01/23 12:25:56;;;;;;;16.95;3.60;;;11.60;79.70;;;;;;5016255;28;20034;-83
2024/01/23 12:28:23;;;;;;;14.30;3.17;;;11.60;79.60;;;;;;5015842;28;20048;-82
2024/01/23 12:30:49;;;;;;;17.58;3.42;;;11.60;79.60;;;;;;5015660;28;20038;-83
2024/01/23 12:33:18;;;;;;;21.83;3.75;;;11.60;80.10;;;;;;5015136;28;20564;-82
2024/01/23 12:35:44;;;;;;;17.33;3.47;;;11.60;80.50;;;;;;5016614;28;20025;-82
2024/01/23 12:38:16;;;;;;;18.98;3.10;;;11.60;80.60;;;;;;5016113;28;20498;-84
2024/01/23 12:40:42;;;;;;;18.20;4.10;;;11.70;80.40;;;;;;5015664;28;20022;-82
2024/01/23 12:43:09;;;;;;;22.85;3.65;;;11.90;80.40;;;;;;5030340;28;20026;-81